메인 페이지
METAR-TAF:

METAR-TAF

공항 :

오데사, 우크라이나

위도: 46-26N, 경도: 030-46E, 고도: 42m

현재 날씨관측

예보는 24분 전, 13:30시(UTC)에 발표되었습니다.
12kt북서풍과 북북동풍을 오가는
온도 3°C
습도 56%
기압 1024 hPa
시정 10km 이상
고도 3100ft 상공 구름 보통

METAR: UKOO 191330Z 35006MPS 320V030 9999 SCT031 03/M05 Q1024 R34/090060 NOSIG

시각: 15:54 (13:54 UTC)

예보

예보는 2 시간 49분 전, 11:05시(UTC)에 발표되었습니다.
예보 대상 시간: 19일 12시부터 20일 12시까지 (UTC)
북북동10kt, 순간 최대 풍속 21kt
시정: 6000m
고도 700ft 상공 구름 많음
고도 1500ft 상공 구름 보통, 적란운.
전환 중
19일 15시부터 19일 16시까지 (UTC)
북동10kt
시정: 2100m
박무
확률 40% :
일시적
19일 16시부터 20일 06시까지 (UTC)
시정: 0300m
고도 200ft 상공
어는 안개
전환 중
20일 06시부터 20일 07시까지 (UTC)
동북동10kt
시정: 6000m

TAF: UKOO 191105Z 1912/2012 02005G11MPS 6000 BKN007 SCT015CB TX04/1912Z TNM03/2003Z BECMG 1915/1916 05005MPS 2100 BR PROB40 TEMPO 1916/2006 0300 FZFG VV002 BECMG 2006/2007 07005MPS 6000 NSW

4,000개 이상의 공항 관측 자료 및 예보 (METAR 및 TAF 보고).

지도상에서 검색 가능한 기상관측소가 노란 점과 빨간 점으로 표시되어 있습니다.

기상관측소 명을 보려면 표시 위로 마우스를 이동하세요.

날씨 관측과 예보를 보려면 클릭하세요.

지도 변경 : 확대하려면 엑스 표시가 있는 녹색 버튼, 축소하려면 빼기 표시가 있는 녹색 버튼, 다음 페이지의 지도를 보려면 녹색 화살표를 클릭하세요.


METAR-TAF: